createdAt,value
2018-06-27T00:02:07.799Z,102734.32
2018-06-27T00:04:37.384Z,102733.44
2018-06-27T00:07:07.125Z,102726.55
2018-06-27T00:09:37.677Z,102728.95
2018-06-27T00:12:07.484Z,102724.80
2018-06-27T00:14:38.136Z,102725.69
2018-06-27T00:17:07.791Z,102719.48
2018-06-27T00:19:38.149Z,102716.64
2018-06-27T00:22:08.926Z,102715.22
2018-06-27T00:24:38.996Z,102721.13
2018-06-27T00:27:08.613Z,102716.58
2018-06-27T00:29:38.207Z,102721.48
2018-06-27T00:32:07.771Z,102730.64
2018-06-27T00:34:37.809Z,102736.25
2018-06-27T00:37:07.374Z,102738.80
2018-06-27T00:39:37.000Z,102738.05
2018-06-27T00:42:06.645Z,102736.86
2018-06-27T00:44:36.515Z,102736.78
2018-06-27T00:47:07.203Z,102737.70
2018-06-27T00:49:37.128Z,102740.28
2018-06-27T00:52:06.854Z,102737.08
2018-06-27T00:54:36.426Z,102739.05
2018-06-27T00:57:06.057Z,102734.67
2018-06-27T00:59:35.326Z,102730.77
2018-06-27T01:02:05.094Z,102728.35
2018-06-27T01:04:35.922Z,102731.66
2018-06-27T01:07:05.891Z,102732.41
2018-06-27T01:09:36.044Z,102731.27
2018-06-27T01:12:05.626Z,102729.99
2018-06-27T01:14:35.160Z,102729.77
2018-06-27T01:17:04.695Z,102728.19
2018-06-27T01:19:34.291Z,102729.41
2018-06-27T01:22:03.792Z,102723.45
2018-06-27T01:24:33.264Z,102726.47
2018-06-27T01:27:02.848Z,102723.50
2018-06-27T01:29:33.956Z,102728.96
2018-06-27T01:32:03.692Z,102725.50
2018-06-27T01:34:39.390Z,102722.91
2018-06-27T01:37:09.290Z,102727.73
2018-06-27T01:39:38.933Z,102725.33
2018-06-27T01:42:08.696Z,102730.23
2018-06-27T01:44:38.326Z,102727.30
2018-06-27T01:47:08.136Z,102722.98
2018-06-27T01:49:37.615Z,102724.87
2018-06-27T01:52:07.315Z,102725.04
2018-06-27T01:54:36.908Z,102721.63
2018-06-27T01:57:06.888Z,102724.66
2018-06-27T01:59:36.457Z,102720.59
2018-06-27T02:02:06.631Z,102727.73
2018-06-27T02:04:37.849Z,102735.98
2018-06-27T02:07:08.408Z,102731.06
2018-06-27T02:09:38.378Z,102735.66
2018-06-27T02:12:08.520Z,102729.40
2018-06-27T02:14:38.346Z,102724.94
2018-06-27T02:17:08.962Z,102730.23
2018-06-27T02:19:40.032Z,102728.41
2018-06-27T02:22:09.647Z,102725.84
2018-06-27T02:24:39.351Z,102726.31
2018-06-27T02:27:09.288Z,102723.50
2018-06-27T02:29:39.456Z,102726.09
2018-06-27T02:32:09.699Z,102726.09
2018-06-27T02:34:39.306Z,102724.86
2018-06-27T02:37:09.076Z,102722.89
2018-06-27T02:39:38.702Z,102724.08
2018-06-27T02:42:08.165Z,102722.33
2018-06-27T02:44:37.811Z,102719.48
2018-06-27T02:47:07.671Z,102718.64
2018-06-27T02:49:37.193Z,102719.56
2018-06-27T02:52:06.674Z,102727.09
2018-06-27T02:54:36.322Z,102717.59
2018-06-27T02:57:06.045Z,102722.89
2018-06-27T02:59:35.652Z,102728.69
2018-06-27T03:02:05.294Z,102737.08
2018-06-27T03:04:34.948Z,102733.23
2018-06-27T03:07:04.506Z,102735.06
2018-06-27T03:09:34.049Z,102739.52
2018-06-27T03:12:03.786Z,102742.67
2018-06-27T03:14:33.424Z,102740.58
2018-06-27T03:17:03.037Z,102748.06
2018-06-27T03:19:33.916Z,102751.22
2018-06-27T03:22:04.085Z,102758.83
2018-06-27T03:24:33.661Z,102763.15
2018-06-27T03:27:04.493Z,102762.44
2018-06-27T03:29:34.172Z,102765.60
2018-06-27T03:32:03.779Z,102764.72
2018-06-27T03:34:34.347Z,102765.60
2018-06-27T03:37:03.940Z,102765.30
2018-06-27T03:39:33.495Z,102771.81
2018-06-27T03:42:03.651Z,102778.69
2018-06-27T03:44:33.757Z,102776.05
2018-06-27T03:47:03.826Z,102769.48
2018-06-27T03:49:33.598Z,102770.06
2018-06-27T03:52:03.408Z,102767.30
2018-06-27T03:54:33.089Z,102757.58
2018-06-27T03:57:02.751Z,102765.52
2018-06-27T03:59:32.381Z,102763.13
2018-06-27T04:02:02.048Z,102759.77
2018-06-27T04:04:33.027Z,102759.17
2018-06-27T04:07:02.565Z,102764.73
2018-06-27T04:09:32.680Z,102765.73
2018-06-27T04:12:02.224Z,102767.30
2018-06-27T04:14:32.536Z,102768.95
2018-06-27T04:17:02.931Z,102770.91
2018-06-27T04:19:33.361Z,102772.58
2018-06-27T04:22:03.499Z,102770.73
2018-06-27T04:24:33.053Z,102770.36
2018-06-27T04:27:02.591Z,102773.88
2018-06-27T04:29:32.435Z,102775.08
2018-06-27T04:32:01.683Z,102768.87
2018-06-27T04:34:31.170Z,102768.98
2018-06-27T04:37:03.565Z,102768.53
2018-06-27T04:39:33.970Z,102771.47
2018-06-27T04:42:03.441Z,102769.18
2018-06-27T04:44:34.012Z,102772.95
2018-06-27T04:47:03.553Z,102767.77
2018-06-27T04:49:33.152Z,102763.81
2018-06-27T04:52:03.318Z,102762.63
2018-06-27T04:54:32.894Z,102757.79
2018-06-27T04:57:02.982Z,102754.67
2018-06-27T04:59:33.150Z,102762.42
2018-06-27T05:02:03.366Z,102764.05
2018-06-27T05:04:32.993Z,102759.36
2018-06-27T05:07:02.491Z,102759.21
2018-06-27T05:09:32.047Z,102757.28
2018-06-27T05:12:03.455Z,102767.60
2018-06-27T05:14:35.305Z,102764.82
2018-06-27T05:17:04.908Z,102768.80
2018-06-27T05:19:39.056Z,102768.63
2018-06-27T05:22:09.534Z,102765.62
2018-06-27T05:24:39.034Z,102764.57
2018-06-27T05:27:08.757Z,102768.92
2018-06-27T05:29:38.329Z,102761.75
2018-06-27T05:32:07.821Z,102767.92
2018-06-27T05:34:37.348Z,102771.15
2018-06-27T05:37:07.145Z,102774.50
2018-06-27T05:39:36.622Z,102768.05
2018-06-27T05:42:06.174Z,102766.58
2018-06-27T05:44:35.628Z,102770.34
2018-06-27T05:47:05.134Z,102777.67
2018-06-27T05:49:34.697Z,102771.06
2018-06-27T05:52:04.198Z,102783.30
2018-06-27T05:54:33.823Z,102781.10
2018-06-27T05:57:03.746Z,102781.65
2018-06-27T05:59:33.286Z,102782.89
2018-06-27T06:02:02.854Z,102785.59
2018-06-27T06:04:32.359Z,102779.37
2018-06-27T06:07:01.813Z,102785.38
2018-06-27T06:09:31.350Z,102779.91
2018-06-27T06:12:00.829Z,102786.73
2018-06-27T06:14:30.422Z,102784.03
2018-06-27T06:16:59.941Z,102794.17
2018-06-27T06:19:29.432Z,102795.94
2018-06-27T06:21:59.147Z,102806.12
2018-06-27T06:24:28.722Z,102804.17
2018-06-27T06:26:58.502Z,102800.41
2018-06-27T06:29:28.061Z,102801.16
2018-06-27T06:32:04.475Z,102797.09
2018-06-27T06:34:33.933Z,102796.73
2018-06-27T06:37:03.380Z,102798.21
2018-06-27T06:39:33.219Z,102798.70
2018-06-27T06:42:03.483Z,102795.59
2018-06-27T06:44:33.341Z,102796.10
2018-06-27T06:47:03.215Z,102794.88
2018-06-27T06:49:32.725Z,102803.08
2018-06-27T06:52:02.212Z,102808.22
2018-06-27T06:54:31.698Z,102805.95
2018-06-27T06:57:01.174Z,102805.83
2018-06-27T06:59:30.720Z,102805.33
2018-06-27T07:02:00.270Z,102814.08
2018-06-27T07:04:29.750Z,102816.10
2018-06-27T07:06:59.302Z,102816.63
2018-06-27T07:09:28.823Z,102814.86
2018-06-27T07:11:58.335Z,102812.61
2018-06-27T07:14:27.920Z,102811.38
2018-06-27T07:16:57.398Z,102813.88
2018-06-27T07:19:26.962Z,102813.88
2018-06-27T07:21:56.510Z,102822.34
2018-06-27T07:24:26.036Z,102826.30
2018-06-27T07:26:55.527Z,102826.48
2018-06-27T07:29:25.024Z,102822.47
2018-06-27T07:31:54.521Z,102814.47
2018-06-27T07:34:24.106Z,102814.77
2018-06-27T07:36:53.741Z,102810.98
2018-06-27T07:39:23.209Z,102811.55
2018-06-27T07:41:52.752Z,102816.25
2018-06-27T07:44:22.371Z,102818.71
2018-06-27T07:46:51.950Z,102820.19
2018-06-27T07:49:21.466Z,102816.42
2018-06-27T07:51:51.180Z,102823.34
2018-06-27T07:54:20.702Z,102823.59
2018-06-27T07:56:50.216Z,102816.64
2018-06-27T07:59:19.752Z,102819.72
2018-06-27T08:01:49.318Z,102823.84
2018-06-27T08:04:19.086Z,102825.25
2018-06-27T08:06:48.535Z,102827.16
2018-06-27T08:09:18.014Z,102832.12
2018-06-27T08:11:47.705Z,102832.35
2018-06-27T08:14:17.223Z,102827.33
2018-06-27T08:16:46.726Z,102832.08
2018-06-27T08:19:16.384Z,102834.38
2018-06-27T08:21:45.978Z,102833.33
2018-06-27T08:24:15.692Z,102836.66
2018-06-27T08:26:45.440Z,102832.15
2018-06-27T08:29:15.077Z,102834.20
2018-06-27T08:31:44.763Z,102831.49
2018-06-27T08:34:14.402Z,102835.91
2018-06-27T08:36:44.116Z,102822.45
2018-06-27T08:39:13.618Z,102831.48
2018-06-27T08:41:43.142Z,102828.44
2018-06-27T08:44:12.656Z,102833.91
2018-06-27T08:46:42.131Z,102830.53
2018-06-27T08:49:11.702Z,102827.94
2018-06-27T08:51:41.210Z,102826.84
2018-06-27T08:54:10.716Z,102826.06
2018-06-27T08:56:40.214Z,102823.25
2018-06-27T08:59:09.744Z,102826.30
2018-06-27T09:01:39.282Z,102824.92
2018-06-27T09:04:08.780Z,102828.16
2018-06-27T09:06:38.304Z,102825.12
2018-06-27T09:09:10.899Z,102821.26
2018-06-27T09:11:40.688Z,102818.98
2018-06-27T09:14:10.178Z,102819.36
2018-06-27T09:16:39.771Z,102819.92
2018-06-27T09:19:09.427Z,102813.27
2018-06-27T09:21:38.986Z,102812.10
2018-06-27T09:24:08.572Z,102817.52
2018-06-27T09:26:38.340Z,102825.08
2018-06-27T09:29:08.767Z,102814.30
2018-06-27T09:31:38.320Z,102817.98
2018-06-27T09:34:07.971Z,102815.95
2018-06-27T09:36:37.573Z,102820.59
2018-06-27T09:39:10.747Z,102813.18
2018-06-27T09:41:40.453Z,102811.24
2018-06-27T09:44:10.134Z,102813.84
2018-06-27T09:46:39.835Z,102812.67
2018-06-27T09:49:09.456Z,102806.57
2018-06-27T09:51:39.170Z,102802.39
2018-06-27T09:54:08.859Z,102798.39
2018-06-27T09:56:38.295Z,102810.73
2018-06-27T09:59:07.848Z,102804.27
2018-06-27T10:01:40.482Z,102804.73
2018-06-27T10:04:10.217Z,102805.13
2018-06-27T10:06:39.697Z,102798.94
2018-06-27T10:09:10.650Z,102794.57
2018-06-27T10:11:40.377Z,102797.84
2018-06-27T10:14:09.947Z,102793.01
2018-06-27T10:16:39.675Z,102790.96
2018-06-27T10:19:09.208Z,102779.34
2018-06-27T10:21:38.949Z,102782.42
2018-06-27T10:24:08.539Z,102784.33
2018-06-27T10:26:38.190Z,102776.08
2018-06-27T10:29:07.741Z,102781.83
2018-06-27T10:31:37.467Z,102777.52
2018-06-27T10:34:07.024Z,102783.44
2018-06-27T10:36:36.664Z,102780.69
2018-06-27T10:39:09.913Z,102781.52
2018-06-27T10:41:39.972Z,102783.25
2018-06-27T10:44:09.514Z,102778.13
2018-06-27T10:46:39.027Z,102771.09
2018-06-27T10:49:08.596Z,102764.17
2018-06-27T10:51:38.158Z,102761.95
2018-06-27T10:54:07.642Z,102769.16
2018-06-27T10:56:37.292Z,102768.95
2018-06-27T10:59:07.706Z,102768.14
2018-06-27T11:01:41.935Z,102762.41
2018-06-27T11:04:11.510Z,102761.41
2018-06-27T11:06:50.602Z,102759.13
2018-06-27T11:09:20.750Z,102764.43
2018-06-27T11:11:50.299Z,102768.03
2018-06-27T11:14:19.821Z,102758.64
2018-06-27T11:16:49.440Z,102751.89
2018-06-27T11:19:19.016Z,102751.01
2018-06-27T11:21:48.546Z,102746.19
2018-06-27T11:24:18.283Z,102744.55
2018-06-27T11:26:47.975Z,102753.23
2018-06-27T11:29:17.472Z,102750.03
2018-06-27T11:31:47.090Z,102749.69
2018-06-27T11:34:16.581Z,102749.81
2018-06-27T11:36:46.133Z,102744.86
2018-06-27T11:39:15.655Z,102748.39
2018-06-27T11:41:45.390Z,102739.62
2018-06-27T11:44:14.997Z,102743.42
2018-06-27T11:46:44.588Z,102739.23
2018-06-27T11:49:14.022Z,102730.74
2018-06-27T11:51:43.632Z,102733.66
2018-06-27T11:54:13.288Z,102726.88
2018-06-27T11:56:42.815Z,102722.03
2018-06-27T11:59:12.412Z,102726.58
2018-06-27T12:01:41.980Z,102727.22
2018-06-27T12:04:11.588Z,102721.67
2018-06-27T12:06:41.063Z,102720.55
2018-06-27T12:09:11.419Z,102721.55
2018-06-27T12:11:41.028Z,102715.05
2018-06-27T12:14:11.380Z,102711.80
2018-06-27T12:16:41.390Z,102707.47
2018-06-27T12:19:11.018Z,102700.67
2018-06-27T12:21:40.566Z,102699.62
2018-06-27T12:24:09.766Z,102694.63
2018-06-27T12:26:39.456Z,102693.76
2018-06-27T12:29:09.203Z,102692.81
2018-06-27T12:31:38.737Z,102693.56
2018-06-27T12:34:08.795Z,102690.73
2018-06-27T12:36:38.371Z,102688.38
2018-06-27T12:39:12.288Z,102682.66
2018-06-27T12:41:42.225Z,102692.38
2018-06-27T12:44:11.696Z,102687.25
2018-06-27T12:46:41.226Z,102685.55
2018-06-27T12:49:10.762Z,102683.76
2018-06-27T12:51:40.368Z,102675.05
2018-06-27T12:54:10.104Z,102681.64
2018-06-27T12:56:39.762Z,102676.09
2018-06-27T12:59:09.340Z,102669.17
2018-06-27T13:01:39.426Z,102666.27
2018-06-27T13:04:09.123Z,102674.66
2018-06-27T13:06:38.741Z,102662.67
2018-06-27T13:09:11.716Z,102664.21
2018-06-27T13:11:42.082Z,102661.25
2018-06-27T13:14:11.591Z,102663.75
2018-06-27T13:16:46.304Z,102659.27
2018-06-27T13:19:16.070Z,102653.53
2018-06-27T13:21:47.007Z,102646.44
2018-06-27T13:24:16.808Z,102646.98
2018-06-27T13:26:46.520Z,102644.59
2018-06-27T13:29:16.256Z,102640.89
2018-06-27T13:31:45.862Z,102636.29
2018-06-27T13:34:15.487Z,102643.06
2018-06-27T13:36:45.053Z,102641.85
2018-06-27T13:39:14.633Z,102640.05
2018-06-27T13:41:50.776Z,102639.03
2018-06-27T13:44:20.630Z,102631.43
2018-06-27T13:46:50.573Z,102625.14
2018-06-27T13:49:20.172Z,102629.83
2018-06-27T13:51:50.584Z,102627.70
2018-06-27T13:54:20.600Z,102621.89
2018-06-27T13:56:50.186Z,102621.89
2018-06-27T13:59:19.836Z,102619.19
2018-06-27T14:01:49.374Z,102617.80
2018-06-27T14:04:18.928Z,102615.50
2018-06-27T14:06:48.916Z,102603.60
2018-06-27T14:09:19.770Z,102601.09
2018-06-27T14:11:49.387Z,102610.31
2018-06-27T14:14:20.228Z,102609.03
2018-06-27T14:16:50.234Z,102603.54
2018-06-27T14:19:19.776Z,102605.22
2018-06-27T14:21:49.415Z,102601.50
2018-06-27T14:24:23.154Z,102608.72
2018-06-27T14:26:53.614Z,102591.52
2018-06-27T14:29:23.203Z,102588.83
2018-06-27T14:31:54.444Z,102589.31
2018-06-27T14:34:24.215Z,102596.52
2018-06-27T14:36:53.796Z,102593.43
2018-06-27T14:39:23.361Z,102594.39
2018-06-27T14:41:53.215Z,102590.23
2018-06-27T14:44:23.080Z,102590.45
2018-06-27T14:46:53.661Z,102583.67
2018-06-27T14:49:23.471Z,102591.39
2018-06-27T14:52:00.901Z,102585.61
2018-06-27T14:54:38.570Z,102577.81
2018-06-27T14:57:08.597Z,102577.16
2018-06-27T14:59:38.577Z,102578.67
2018-06-27T15:02:08.462Z,102578.30
2018-06-27T15:04:39.103Z,102572.28
2018-06-27T15:07:08.683Z,102572.20
2018-06-27T15:09:38.344Z,102578.32
2018-06-27T15:12:14.507Z,102577.80
2018-06-27T15:14:44.356Z,102575.87
2018-06-27T15:17:14.091Z,102558.09
2018-06-27T15:19:43.689Z,102562.80
2018-06-27T15:22:13.199Z,102561.86
2018-06-27T15:24:42.793Z,102556.44
2018-06-27T15:27:12.383Z,102563.44
2018-06-27T15:29:42.605Z,102558.00
2018-06-27T15:32:12.489Z,102559.14
2018-06-27T15:34:42.317Z,102555.05
2018-06-27T15:37:12.076Z,102549.34
2018-06-27T15:39:41.921Z,102549.05
2018-06-27T15:42:11.705Z,102554.06
2018-06-27T15:44:41.348Z,102542.31
2018-06-27T15:47:13.248Z,102545.16
2018-06-27T15:49:43.608Z,102546.52
2018-06-27T15:52:13.647Z,102553.27
2018-06-27T15:54:43.615Z,102544.79
2018-06-27T15:57:15.095Z,102543.92
2018-06-27T15:59:54.661Z,102538.31
2018-06-27T16:02:24.326Z,102538.52
2018-06-27T16:04:54.114Z,102537.16
2018-06-27T16:07:23.811Z,102528.43
2018-06-27T16:09:53.853Z,102529.61
2018-06-27T16:12:23.448Z,102526.34
2018-06-27T16:14:53.099Z,102529.16
2018-06-27T16:17:23.517Z,102523.19
2018-06-27T16:19:52.804Z,102521.69
2018-06-27T16:22:22.481Z,102518.63
2018-06-27T16:24:52.287Z,102525.41
2018-06-27T16:27:21.788Z,102524.69
2018-06-27T16:29:51.302Z,102510.56
2018-06-27T16:32:22.563Z,102520.73
2018-06-27T16:34:52.130Z,102519.38
2018-06-27T16:37:21.469Z,102514.72
2018-06-27T16:39:51.070Z,102519.75
2018-06-27T16:42:20.810Z,102514.81
2018-06-27T16:44:50.386Z,102520.14
2018-06-27T16:47:19.968Z,102508.81
2018-06-27T16:49:49.533Z,102514.78
2018-06-27T16:52:19.755Z,102511.87
2018-06-27T16:54:51.075Z,102503.38
2018-06-27T16:57:20.813Z,102509.97
2018-06-27T16:59:52.141Z,102509.11
2018-06-27T17:02:23.868Z,102509.86
2018-06-27T17:04:54.456Z,102506.33
2018-06-27T17:07:24.007Z,102503.27
2018-06-27T17:09:54.635Z,102505.81
2018-06-27T17:12:24.531Z,102500.42
2018-06-27T17:14:54.027Z,102506.34
2018-06-27T17:17:23.574Z,102501.50
2018-06-27T17:19:53.234Z,102500.52
2018-06-27T17:22:22.838Z,102500.70
2018-06-27T17:24:52.823Z,102502.50
2018-06-27T17:27:23.093Z,102500.54
2018-06-27T17:29:52.975Z,102502.06
2018-06-27T17:32:23.241Z,102502.05
2018-06-27T17:34:54.753Z,102499.49
2018-06-27T17:37:25.537Z,102501.89
2018-06-27T17:39:55.907Z,102506.54
2018-06-27T17:42:25.753Z,102495.34
2018-06-27T17:44:55.011Z,102499.02
2018-06-27T17:47:24.595Z,102503.38
2018-06-27T17:49:54.230Z,102497.35
2018-06-27T17:52:23.890Z,102498.56
2018-06-27T17:54:53.286Z,102500.97
2018-06-27T17:57:23.544Z,102503.95
2018-06-27T17:59:53.381Z,102498.54
2018-06-27T18:02:23.716Z,102509.42
2018-06-27T18:04:53.476Z,102506.53
2018-06-27T18:07:22.722Z,102512.17
2018-06-27T18:09:52.531Z,102509.84
2018-06-27T18:12:22.152Z,102511.04
2018-06-27T18:14:54.813Z,102512.15
2018-06-27T18:17:26.623Z,102509.55
2018-06-27T18:19:58.184Z,102505.27
2018-06-27T18:22:31.924Z,102511.58
2018-06-27T18:25:04.021Z,102508.81
2018-06-27T18:27:36.708Z,102507.65
2018-06-27T18:30:09.241Z,102515.99
2018-06-27T18:32:40.288Z,102516.90
2018-06-27T18:35:13.084Z,102522.52
2018-06-27T18:37:45.775Z,102523.70
2018-06-27T18:40:17.978Z,102526.43
2018-06-27T18:42:49.604Z,102526.36
2018-06-27T18:45:22.462Z,102529.02
2018-06-27T18:47:54.557Z,102525.47
2018-06-27T18:50:24.046Z,102519.25
2018-06-27T18:52:53.548Z,102524.61
2018-06-27T18:55:23.169Z,102524.89
2018-06-27T18:57:52.713Z,102525.84
2018-06-27T19:00:22.222Z,102523.97
2018-06-27T19:02:51.774Z,102531.76
2018-06-27T19:05:21.436Z,102528.30
2018-06-27T19:07:51.017Z,102533.25
2018-06-27T19:10:20.537Z,102525.42
2018-06-27T19:12:50.095Z,102533.03
2018-06-27T19:15:20.047Z,102534.52
2018-06-27T19:17:49.292Z,102537.14
2018-06-27T19:20:18.835Z,102537.19
2018-06-27T19:22:48.416Z,102542.19
2018-06-27T19:25:18.211Z,102535.63
2018-06-27T19:27:48.011Z,102546.89
2018-06-27T19:30:17.755Z,102546.34
2018-06-27T19:32:47.509Z,102540.62
2018-06-27T19:35:17.479Z,102546.88
2018-06-27T19:37:47.098Z,102547.15
2018-06-27T19:40:16.753Z,102550.66
2018-06-27T19:42:46.469Z,102555.20
2018-06-27T19:45:16.040Z,102555.19
2018-06-27T19:47:45.602Z,102555.71
2018-06-27T19:50:15.294Z,102554.30
2018-06-27T19:52:44.945Z,102563.02
2018-06-27T19:55:14.690Z,102562.89
2018-06-27T19:57:44.314Z,102558.52
2018-06-27T20:00:14.253Z,102565.56
2018-06-27T20:02:43.890Z,102559.00
2018-06-27T20:05:13.582Z,102565.08
2018-06-27T20:07:43.381Z,102565.34
2018-06-27T20:10:13.153Z,102562.22
2018-06-27T20:12:42.994Z,102571.30
2018-06-27T20:15:13.500Z,102573.16
2018-06-27T20:17:43.969Z,102578.31
2018-06-27T20:20:13.643Z,102582.34
2018-06-27T20:22:43.428Z,102582.34
2018-06-27T20:25:13.206Z,102586.38
2018-06-27T20:27:42.941Z,102588.37
2018-06-27T20:30:12.653Z,102592.25
2018-06-27T20:32:42.389Z,102587.11
2018-06-27T20:35:11.971Z,102579.34
2018-06-27T20:37:41.844Z,102587.78
2018-06-27T20:40:11.661Z,102582.16
2018-06-27T20:42:41.626Z,102583.48
2018-06-27T20:45:11.420Z,102587.38
2018-06-27T20:47:41.408Z,102586.92
2018-06-27T20:50:11.239Z,102593.67
2018-06-27T20:52:41.008Z,102594.11
2018-06-27T20:55:10.695Z,102588.86
2018-06-27T20:57:40.433Z,102595.32
2018-06-27T21:00:10.270Z,102593.66
2018-06-27T21:02:40.071Z,102597.45
2018-06-27T21:05:09.748Z,102598.98
2018-06-27T21:07:39.436Z,102593.67
2018-06-27T21:10:09.254Z,102604.83
2018-06-27T21:12:38.834Z,102602.69
2018-06-27T21:15:08.462Z,102599.02
2018-06-27T21:17:38.180Z,102608.23
2018-06-27T21:20:08.445Z,102611.78
2018-06-27T21:22:41.962Z,102606.41
2018-06-27T21:25:11.795Z,102609.96
2018-06-27T21:27:41.408Z,102603.34
2018-06-27T21:30:11.069Z,102600.97
2018-06-27T21:32:41.309Z,102603.45
2018-06-27T21:35:10.958Z,102607.17
2018-06-27T21:37:40.932Z,102604.06
2018-06-27T21:40:10.181Z,102608.24
2018-06-27T21:42:39.803Z,102609.42
2018-06-27T21:45:09.426Z,102607.35
2018-06-27T21:47:39.009Z,102608.42
2018-06-27T21:50:08.753Z,102610.21
2018-06-27T21:52:38.435Z,102615.41
2018-06-27T21:55:08.084Z,102611.38
2018-06-27T21:57:37.881Z,102615.71
2018-06-27T22:00:09.984Z,102618.53
2018-06-27T22:02:39.818Z,102622.22
2018-06-27T22:05:09.536Z,102615.52
2018-06-27T22:07:39.366Z,102626.36
2018-06-27T22:10:09.112Z,102619.64
2018-06-27T22:12:38.827Z,102624.50
2018-06-27T22:15:08.368Z,102624.62
2018-06-27T22:17:38.509Z,102631.37
2018-06-27T22:20:09.272Z,102632.91
2018-06-27T22:22:38.945Z,102629.41
2018-06-27T22:25:08.842Z,102627.70
2018-06-27T22:27:38.670Z,102632.55
2018-06-27T22:30:08.560Z,102640.56
2018-06-27T22:32:38.250Z,102639.86
2018-06-27T22:35:07.863Z,102633.27
2018-06-27T22:37:37.468Z,102632.18
2018-06-27T22:40:07.027Z,102643.00
2018-06-27T22:42:36.691Z,102643.34
2018-06-27T22:45:06.334Z,102637.80
2018-06-27T22:47:35.937Z,102639.69
2018-06-27T22:50:05.528Z,102641.75
2018-06-27T22:52:35.302Z,102638.10
2018-06-27T22:55:05.004Z,102646.73
2018-06-27T22:57:34.616Z,102651.19
2018-06-27T23:00:04.341Z,102644.31
2018-06-27T23:02:34.018Z,102640.99
2018-06-27T23:05:03.689Z,102640.63
2018-06-27T23:07:33.360Z,102638.97
2018-06-27T23:10:03.048Z,102642.29
2018-06-27T23:12:32.619Z,102645.24
2018-06-27T23:15:02.207Z,102642.72
2018-06-27T23:17:31.774Z,102636.31
2018-06-27T23:20:01.594Z,102647.80
2018-06-27T23:22:47.569Z,102646.08
2018-06-27T23:25:17.295Z,102644.18
2018-06-27T23:27:47.481Z,102640.93
2018-06-27T23:30:17.128Z,102643.42
2018-06-27T23:32:46.740Z,102645.38
2018-06-27T23:35:16.320Z,102652.71
2018-06-27T23:37:45.990Z,102646.53
2018-06-27T23:40:15.711Z,102651.15
2018-06-27T23:42:45.399Z,102644.71
2018-06-27T23:45:14.982Z,102647.97
2018-06-27T23:47:44.562Z,102644.41
2018-06-27T23:50:14.149Z,102649.78
2018-06-27T23:52:43.988Z,102647.97
2018-06-27T23:55:13.619Z,102649.33
2018-06-27T23:57:43.259Z,102648.47
